Time;durP1;ratioP1;P1;durP2;ratioP2;P2;SDS_P1;SDS_P2;PMS_P1;PMS_P2;Temp;Humidity;BMP_temperature;BMP_pressure;BME280_temperature;BME280_humidity;BME280_pressure;Samples;Min_cycle;Max_cycle;Signal;HPM_P1;HPM_P2
2023/09/03 00:00:48;;;;;;;;;;;;;;;;;;5031943;28;19958;-72
2023/09/03 00:03:14;;;;;;;;;;;;;;;;;;5031874;28;19909;-72
2023/09/03 00:05:40;;;;;;;;;;;;;;;;;;5032086;28;19944;-72
2023/09/03 00:08:06;;;;;;;;;;;;;;;;;;5032099;28;19947;-72
2023/09/03 00:10:35;;;;;;;;;;;;;;;;;;5031632;28;19944;-72
2023/09/03 00:13:01;;;;;;;;;;;;;;;;;;5031874;28;19928;-72
2023/09/03 00:15:26;;;;;;;;;;;;;;;;;;5032167;28;20355;-71
2023/09/03 00:17:52;;;;;;;;;;;;;;;;;;5032075;28;20013;-72
2023/09/03 00:20:18;;;;;;;;;;;;;;;;;;5031612;28;19912;-72
2023/09/03 00:22:44;;;;;;;;;;;;;;;;;;5031624;28;19913;-72
2023/09/03 00:25:10;;;;;;;;;;;;;;;;;;5031774;28;20359;-72
2023/09/03 00:27:36;;;;;;;;;;;;;;;;;;5031724;28;19912;-72
2023/09/03 00:30:02;;;;;;;;;;;;;;;;;;5031569;28;19909;-73
2023/09/03 00:32:28;;;;;;;;;;;;;;;;;;5031487;28;19916;-72
2023/09/03 00:34:54;;;;;;;;;;;;;;;;;;5031618;28;20016;-72
2023/09/03 00:37:20;;;;;;;;;;;;;;;;;;5031573;28;19912;-72
2023/09/03 00:39:46;;;;;;;;;;;;;;;;;;5031742;28;19951;-71
2023/09/03 00:42:12;;;;;;;;;;;;;;;;;;5031560;28;19909;-72
2023/09/03 00:44:38;;;;;;;;;;;;;;;;;;5031297;28;20298;-72
2023/09/03 00:47:04;;;;;;;;;;;;;;;;;;5013703;28;20370;-73
2023/09/03 00:49:30;;;;;;;;;;;;;;;;;;5031350;28;19905;-72
2023/09/03 00:51:56;;;;;;;;;;;;;;;;;;5013644;28;19940;-72
2023/09/03 00:54:22;;;;;;;;;;;;;;;;;;5033255;28;20425;-72
2023/09/03 00:56:48;;;;;;;;;;;;;;;;;;5035590;28;19980;-72
2023/09/03 00:59:14;;;;;;;;;;;;;;;;;;5017575;28;19971;-72
2023/09/03 01:01:40;;;;;;;;;;;;;;;;;;5035275;28;20415;-72
2023/09/03 01:04:06;;;;;;;;;;;;;;;;;;5035509;28;20434;-72
2023/09/03 01:06:31;;;;;;;;;;;;;;;;;;5035011;28;19905;-72
2023/09/03 01:08:57;;;;;;;;;;;;;;;;;;5035087;28;19948;-72
2023/09/03 01:11:23;;;;;;;;;;;;;;;;;;5035319;28;19905;-72
2023/09/03 01:13:49;;;;;;;;;;;;;;;;;;5034905;28;19956;-72
2023/09/03 01:16:16;;;;;;;;;;;;;;;;;;5035216;28;19967;-72
2023/09/03 01:18:42;;;;;;;;;;;;;;;;;;5035201;28;19905;-72
2023/09/03 01:21:08;;;;;;;;;;;;;;;;;;5034991;28;19945;-72
2023/09/03 01:23:33;;;;;;;;;;;;;;;;;;5035037;28;19982;-72
2023/09/03 01:25:59;;;;;;;;;;;;;;;;;;5034914;28;19952;-72
2023/09/03 01:28:25;;;;;;;;;;;;;;;;;;5035010;28;19909;-72
2023/09/03 01:30:51;;;;;;;;;;;;;;;;;;5035008;28;19951;-72
2023/09/03 01:33:17;;;;;;;;;;;;;;;;;;5034460;28;20347;-72
2023/09/03 01:35:43;;;;;;;;;;;;;;;;;;5034889;28;20290;-72
2023/09/03 01:38:09;;;;;;;;;;;;;;;;;;5034755;28;19905;-71
2023/09/03 01:40:35;;;;;;;;;;;;;;;;;;5034768;28;20358;-72
2023/09/03 01:43:01;;;;;;;;;;;;;;;;;;5016555;28;19948;-72
2023/09/03 01:45:27;;;;;;;;;;;;;;;;;;5034533;28;19963;-72
2023/09/03 01:47:53;;;;;;;;;;;;;;;;;;5016902;28;19997;-72
2023/09/03 01:50:19;;;;;;;;;;;;;;;;;;5034623;28;19968;-72
2023/09/03 01:52:45;;;;;;;;;;;;;;;;;;5034110;28;19958;-71
2023/09/03 01:55:11;;;;;;;;;;;;;;;;;;5034519;28;20006;-72
2023/09/03 01:57:37;;;;;;;;;;;;;;;;;;5034250;28;19959;-72
2023/09/03 02:00:03;;;;;;;;;;;;;;;;;;5033948;28;20298;-72
2023/09/03 02:02:29;;;;;;;;;;;;;;;;;;5034463;28;20367;-72
2023/09/03 02:04:54;;;;;;;;;;;;;;;;;;5034197;28;19912;-72
2023/09/03 02:07:20;;;;;;;;;;;;;;;;;;5034140;28;19909;-72
2023/09/03 02:09:46;;;;;;;;;;;;;;;;;;5034168;28;20000;-71
2023/09/03 02:12:12;;;;;;;;;;;;;;;;;;5033973;28;19951;-71
2023/09/03 02:14:38;;;;;;;;;;;;;;;;;;5033987;28;19960;-72
2023/09/03 02:17:04;;;;;;;;;;;;;;;;;;5034195;28;19952;-72
2023/09/03 02:19:30;;;;;;;;;;;;;;;;;;5033887;28;19912;-72
2023/09/03 02:21:56;;;;;;;;;;;;;;;;;;5033782;28;19912;-72
2023/09/03 02:24:22;;;;;;;;;;;;;;;;;;5033905;28;19909;-72
2023/09/03 02:26:48;;;;;;;;;;;;;;;;;;5033786;28;19909;-72
2023/09/03 02:29:14;;;;;;;;;;;;;;;;;;5033913;28;19912;-72
2023/09/03 02:31:40;;;;;;;;;;;;;;;;;;5033531;28;19951;-72
2023/09/03 02:34:06;;;;;;;;;;;;;;;;;;5033802;28;19913;-72
2023/09/03 02:36:33;;;;;;;;;;;;;;;;;;5033746;28;19916;-72
2023/09/03 02:39:00;;;;;;;;;;;;;;;;;;5033417;28;19905;-72
2023/09/03 02:41:26;;;;;;;;;;;;;;;;;;5033689;28;19940;-73
2023/09/03 02:43:52;;;;;;;;;;;;;;;;;;5033588;28;19912;-72
2023/09/03 02:46:18;;;;;;;;;;;;;;;;;;5033510;28;19906;-72
2023/09/03 02:48:44;;;;;;;;;;;;;;;;;;5033293;28;20370;-71
2023/09/03 02:51:10;;;;;;;;;;;;;;;;;;5015694;28;19912;-72
2023/09/03 02:53:36;;;;;;;;;;;;;;;;;;5033046;28;19955;-71
2023/09/03 02:56:02;;;;;;;;;;;;;;;;;;5032948;28;19917;-72
2023/09/03 02:58:28;;;;;;;;;;;;;;;;;;5033221;28;19917;-72
2023/09/03 03:00:53;;;;;;;;;;;;;;;;;;5033442;28;19994;-71
2023/09/03 03:03:19;;;;;;;;;;;;;;;;;;5015227;28;19940;-71
2023/09/03 03:05:45;;;;;;;;;;;;;;;;;;5032843;28;19955;-72
2023/09/03 03:08:11;;;;;;;;;;;;;;;;;;5033122;28;19912;-71
2023/09/03 03:10:37;;;;;;;;;;;;;;;;;;5033191;28;19948;-71
2023/09/03 03:13:03;;;;;;;;;;;;;;;;;;5032812;28;19947;-71
2023/09/03 03:15:29;;;;;;;;;;;;;;;;;;5033041;28;19905;-71
2023/09/03 03:17:55;;;;;;;;;;;;;;;;;;5014212;28;19905;-71
2023/09/03 03:20:22;;;;;;;;;;;;;;;;;;5032775;28;20278;-71
2023/09/03 03:22:48;;;;;;;;;;;;;;;;;;5033064;28;19959;-71
2023/09/03 03:25:13;;;;;;;;;;;;;;;;;;5032734;28;19905;-71
2023/09/03 03:27:39;;;;;;;;;;;;;;;;;;5014673;28;20325;-71
2023/09/03 03:30:05;;;;;;;;;;;;;;;;;;5032477;28;20372;-71
2023/09/03 03:32:31;;;;;;;;;;;;;;;;;;5032846;28;20359;-71
2023/09/03 03:34:57;;;;;;;;;;;;;;;;;;5032508;28;19963;-71
2023/09/03 03:37:23;;;;;;;;;;;;;;;;;;5032557;28;19947;-71
2023/09/03 03:39:50;;;;;;;;;;;;;;;;;;5032640;28;19924;-72
2023/09/03 03:42:16;;;;;;;;;;;;;;;;;;5032152;28;20019;-71
2023/09/03 03:44:42;;;;;;;;;;;;;;;;;;5032979;28;20402;-71
2023/09/03 03:47:08;;;;;;;;;;;;;;;;;;5032262;28;19948;-71
2023/09/03 03:49:34;;;;;;;;;;;;;;;;;;5032427;28;19971;-71
2023/09/03 03:52:00;;;;;;;;;;;;;;;;;;5032305;28;19951;-71
2023/09/03 03:54:26;;;;;;;;;;;;;;;;;;5014243;28;19964;-71
2023/09/03 03:56:52;;;;;;;;;;;;;;;;;;5031682;28;19940;-71
2023/09/03 03:59:17;;;;;;;;;;;;;;;;;;5032304;28;19948;-71
2023/09/03 04:01:43;;;;;;;;;;;;;;;;;;5032118;28;19912;-71
2023/09/03 04:04:09;;;;;;;;;;;;;;;;;;5031986;28;19912;-71
2023/09/03 04:06:35;;;;;;;;;;;;;;;;;;5032183;28;19905;-71
2023/09/03 04:09:02;;;;;;;;;;;;;;;;;;5014224;28;19905;-71
2023/09/03 04:11:28;;;;;;;;;;;;;;;;;;5031857;28;19916;-71
2023/09/03 04:13:54;;;;;;;;;;;;;;;;;;5031866;28;19949;-71
2023/09/03 04:16:20;;;;;;;;;;;;;;;;;;5031753;28;19998;-71
2023/09/03 04:18:46;;;;;;;;;;;;;;;;;;5031970;28;19916;-71
2023/09/03 04:21:12;;;;;;;;;;;;;;;;;;5031849;28;20255;-71
2023/09/03 04:23:38;;;;;;;;;;;;;;;;;;5031586;28;20365;-71
2023/09/03 04:26:04;;;;;;;;;;;;;;;;;;5031658;28;20735;-71
2023/09/03 04:28:30;;;;;;;;;;;;;;;;;;5031658;28;19909;-71
2023/09/03 04:30:56;;;;;;;;;;;;;;;;;;5031856;28;20448;-71
2023/09/03 04:33:22;;;;;;;;;;;;;;;;;;5031538;28;19998;-71
2023/09/03 04:35:49;;;;;;;;;;;;;;;;;;5031357;28;19905;-71
2023/09/03 04:38:15;;;;;;;;;;;;;;;;;;5031703;28;19905;-71
2023/09/03 04:40:44;;;;;;;;;;;;;;;;;;5031197;28;20413;-71
2023/09/03 04:43:10;;;;;;;;;;;;;;;;;;5031619;28;20393;-71
2023/09/03 04:45:36;;;;;;;;;;;;;;;;;;5031515;28;19960;-71
2023/09/03 04:48:02;;;;;;;;;;;;;;;;;;5031349;28;19998;-71
2023/09/03 04:50:28;;;;;;;;;;;;;;;;;;5013697;28;20355;-71
2023/09/03 04:52:54;;;;;;;;;;;;;;;;;;5031411;28;19905;-71
2023/09/03 04:55:20;;;;;;;;;;;;;;;;;;5031566;28;20012;-71
2023/09/03 04:57:46;;;;;;;;;;;;;;;;;;5031101;28;19952;-70
2023/09/03 05:00:12;;;;;;;;;;;;;;;;;;5030851;28;19931;-70
2023/09/03 05:02:38;;;;;;;;;;;;;;;;;;5031441;28;19905;-70
2023/09/03 05:05:04;;;;;;;;;;;;;;;;;;5031302;28;19905;-70
2023/09/03 05:07:30;;;;;;;;;;;;;;;;;;5031324;28;20001;-69
2023/09/03 05:09:56;;;;;;;;;;;;;;;;;;5031021;28;19955;-70
2023/09/03 05:12:22;;;;;;;;;;;;;;;;;;5012996;28;20454;-70
2023/09/03 05:14:48;;;;;;;;;;;;;;;;;;5031162;28;19956;-70
2023/09/03 05:17:14;;;;;;;;;;;;;;;;;;5030904;28;20039;-71
2023/09/03 05:19:40;;;;;;;;;;;;;;;;;;5031297;28;19995;-70
2023/09/03 05:22:06;;;;;;;;;;;;;;;;;;5031148;28;19905;-70
2023/09/03 05:24:32;;;;;;;;;;;;;;;;;;5031008;28;19905;-70
2023/09/03 05:26:58;;;;;;;;;;;;;;;;;;5030912;28;20372;-70
2023/09/03 05:29:24;;;;;;;;;;;;;;;;;;5031001;28;19959;-69
2023/09/03 05:31:49;;;;;;;;;;;;;;;;;;5031220;28;19912;-70
2023/09/03 05:34:15;;;;;;;;;;;;;;;;;;5030913;28;19960;-70
2023/09/03 05:36:41;;;;;;;;;;;;;;;;;;5030515;28;19941;-70
2023/09/03 05:39:07;;;;;;;;;;;;;;;;;;5031188;28;19940;-70
2023/09/03 05:41:33;;;;;;;;;;;;;;;;;;5034928;28;19948;-70
2023/09/03 05:44:05;;;;;;;;;;;;;;;;;;5034151;28;19905;-70
2023/09/03 05:46:31;;;;;;;;;;;;;;;;;;5034794;28;19952;-70
2023/09/03 05:48:57;;;;;;;;;;;;;;;;;;5034695;28;20005;-70
2023/09/03 05:51:23;;;;;;;;;;;;;;;;;;5034411;28;19943;-71
2023/09/03 05:53:49;;;;;;;;;;;;;;;;;;5034317;28;19959;-70
2023/09/03 05:56:15;;;;;;;;;;;;;;;;;;5034361;28;19909;-71
2023/09/03 05:58:42;;;;;;;;;;;;;;;;;;5034056;28;19924;-71
2023/09/03 06:01:08;;;;;;;;;;;;;;;;;;5016534;28;19905;-71
2023/09/03 06:03:33;;;;;;;;;;;;;;;;;;5033924;28;19912;-71
2023/09/03 06:05:59;;;;;;;;;;;;;;;;;;5034416;28;19905;-71
2023/09/03 06:08:25;;;;;;;;;;;;;;;;;;5034295;28;20286;-71
2023/09/03 06:10:56;;;;;;;;;;;;;;;;;;5034071;28;20378;-71
2023/09/03 06:13:22;;;;;;;;;;;;;;;;;;5034017;28;20270;-70
2023/09/03 06:15:47;;;;;;;;;;;;;;;;;;5033976;28;19912;-71
2023/09/03 06:18:13;;;;;;;;;;;;;;;;;;5034126;28;19948;-70
2023/09/03 06:20:39;;;;;;;;;;;;;;;;;;5033867;28;20359;-71
2023/09/03 06:23:05;;;;;;;;;;;;;;;;;;5034068;28;19941;-71
2023/09/03 06:25:31;;;;;;;;;;;;;;;;;;5033644;28;20323;-70
2023/09/03 06:27:57;;;;;;;;;;;;;;;;;;5033951;28;20326;-71
2023/09/03 06:30:23;;;;;;;;;;;;;;;;;;5015893;28;20387;-70
2023/09/03 06:32:49;;;;;;;;;;;;;;;;;;5033871;28;19991;-70
2023/09/03 06:35:15;;;;;;;;;;;;;;;;;;5033417;28;19956;-71
2023/09/03 06:37:41;;;;;;;;;;;;;;;;;;5033689;28;19952;-72
2023/09/03 06:40:07;;;;;;;;;;;;;;;;;;5033767;28;19905;-71
2023/09/03 06:42:33;;;;;;;;;;;;;;;;;;5033589;28;19967;-70
2023/09/03 06:44:59;;;;;;;;;;;;;;;;;;5015594;28;19971;-71
2023/09/03 06:47:25;;;;;;;;;;;;;;;;;;5033338;28;19944;-71
2023/09/03 06:49:51;;;;;;;;;;;;;;;;;;5015809;28;19905;-71
2023/09/03 06:52:17;;;;;;;;;;;;;;;;;;5014256;28;20355;-71
2023/09/03 06:54:43;;;;;;;;;;;;;;;;;;5033283;28;19924;-71
2023/09/03 06:57:09;;;;;;;;;;;;;;;;;;5032979;28;19956;-71
2023/09/03 06:59:35;;;;;;;;;;;;;;;;;;5033178;28;20008;-71
2023/09/03 07:02:01;;;;;;;;;;;;;;;;;;5033213;28;19912;-71
2023/09/03 07:04:27;;;;;;;;;;;;;;;;;;5033232;28;20363;-72
2023/09/03 07:06:53;;;;;;;;;;;;;;;;;;5033494;28;19905;-72
2023/09/03 07:09:19;;;;;;;;;;;;;;;;;;5033021;28;20311;-72
2023/09/03 07:11:45;;;;;;;;;;;;;;;;;;5015050;28;20417;-72
2023/09/03 07:14:11;;;;;;;;;;;;;;;;;;5032914;28;19999;-72
2023/09/03 07:16:38;;;;;;;;;;;;;;;;;;5033170;28;20020;-72
2023/09/03 07:19:04;;;;;;;;;;;;;;;;;;5033364;28;19990;-70
2023/09/03 07:21:29;;;;;;;;;;;;;;;;;;5032525;28;19913;-72
2023/09/03 07:23:56;;;;;;;;;;;;;;;;;;5033127;28;19905;-72
2023/09/03 07:26:22;;;;;;;;;;;;;;;;;;5032711;28;20374;-71
2023/09/03 07:28:48;;;;;;;;;;;;;;;;;;5032645;28;19930;-71
2023/09/03 07:31:14;;;;;;;;;;;;;;;;;;5032237;28;19987;-72
2023/09/03 07:33:40;;;;;;;;;;;;;;;;;;5033289;28;20013;-72
2023/09/03 07:36:06;;;;;;;;;;;;;;;;;;5033038;28;19905;-72
2023/09/03 07:38:31;;;;;;;;;;;;;;;;;;5032563;28;19955;-71
2023/09/03 07:40:57;;;;;;;;;;;;;;;;;;5032473;28;19909;-71
2023/09/03 07:43:23;;;;;;;;;;;;;;;;;;5032357;28;20347;-71
2023/09/03 07:45:49;;;;;;;;;;;;;;;;;;5032182;28;19947;-71
2023/09/03 07:48:15;;;;;;;;;;;;;;;;;;5032090;28;19952;-71
2023/09/03 07:50:41;;;;;;;;;;;;;;;;;;5032548;28;19909;-71
2023/09/03 07:53:07;;;;;;;;;;;;;;;;;;5032227;28;19975;-71
2023/09/03 07:55:33;;;;;;;;;;;;;;;;;;5031972;28;20311;-71
2023/09/03 07:57:59;;;;;;;;;;;;;;;;;;5031646;28;19967;-71
2023/09/03 08:00:25;;;;;;;;;;;;;;;;;;5032135;28;19913;-71
2023/09/03 08:02:51;;;;;;;;;;;;;;;;;;5031824;28;19905;-71
2023/09/03 08:05:17;;;;;;;;;;;;;;;;;;5031866;28;19909;-71
2023/09/03 08:07:43;;;;;;;;;;;;;;;;;;5032202;28;19951;-70
2023/09/03 08:10:09;;;;;;;;;;;;;;;;;;5031642;28;20412;-72
2023/09/03 08:12:35;;;;;;;;;;;;;;;;;;5031811;28;19912;-71
2023/09/03 08:15:01;;;;;;;;;;;;;;;;;;5031843;28;19913;-72
2023/09/03 08:17:29;;;;;;;;;;;;;;;;;;5031951;28;19954;-71
2023/09/03 08:19:55;;;;;;;;;;;;;;;;;;5031440;28;20382;-71
2023/09/03 08:22:21;;;;;;;;;;;;;;;;;;5031595;28;19948;-71
2023/09/03 08:24:47;;;;;;;;;;;;;;;;;;5031723;28;19912;-71
2023/09/03 08:27:14;;;;;;;;;;;;;;;;;;5031671;28;19932;-71
2023/09/03 08:29:40;;;;;;;;;;;;;;;;;;5031584;28;19936;-71
2023/09/03 08:32:06;;;;;;;;;;;;;;;;;;5031584;28;19956;-71
2023/09/03 08:34:32;;;;;;;;;;;;;;;;;;5031052;28;20909;-71
2023/09/03 08:36:58;;;;;;;;;;;;;;;;;;5031485;28;19913;-71
2023/09/03 08:39:23;;;;;;;;;;;;;;;;;;5031338;28;20008;-71
2023/09/03 08:41:49;;;;;;;;;;;;;;;;;;5031516;28;19955;-71
2023/09/03 08:44:15;;;;;;;;;;;;;;;;;;5031044;28;19994;-71
2023/09/03 08:46:41;;;;;;;;;;;;;;;;;;5031359;28;19951;-70
2023/09/03 08:49:07;;;;;;;;;;;;;;;;;;5031094;28;19928;-71
2023/09/03 08:51:33;;;;;;;;;;;;;;;;;;5031422;28;19928;-71
2023/09/03 08:53:59;;;;;;;;;;;;;;;;;;5031387;28;20360;-71
2023/09/03 08:56:25;;;;;;;;;;;;;;;;;;5030943;28;19944;-71
2023/09/03 08:58:51;;;;;;;;;;;;;;;;;;5030995;28;19959;-70
2023/09/03 09:01:17;;;;;;;;;;;;;;;;;;5031262;28;20355;-71
2023/09/03 09:03:44;;;;;;;;;;;;;;;;;;5031175;28;19955;-71
2023/09/03 09:06:10;;;;;;;;;;;;;;;;;;5030474;28;19905;-71
2023/09/03 09:08:36;;;;;;;;;;;;;;;;;;5031373;28;20497;-71
2023/09/03 09:11:02;;;;;;;;;;;;;;;;;;5031187;28;19947;-71
2023/09/03 09:13:28;;;;;;;;;;;;;;;;;;5031015;28;19944;-71
2023/09/03 09:15:54;;;;;;;;;;;;;;;;;;5033782;28;19948;-71
2023/09/03 09:18:20;;;;;;;;;;;;;;;;;;5034936;28;19952;-71
2023/09/03 09:20:45;;;;;;;;;;;;;;;;;;5035065;28;19944;-70
2023/09/03 09:23:11;;;;;;;;;;;;;;;;;;5034862;28;19948;-70
2023/09/03 09:25:38;;;;;;;;;;;;;;;;;;5035100;28;19947;-71
2023/09/03 09:28:04;;;;;;;;;;;;;;;;;;5035004;28;19905;-71
2023/09/03 09:30:29;;;;;;;;;;;;;;;;;;5034899;28;19912;-71
2023/09/03 09:32:55;;;;;;;;;;;;;;;;;;5034173;28;20003;-71
2023/09/03 09:35:21;;;;;;;;;;;;;;;;;;5034629;28;19956;-68
2023/09/03 09:37:47;;;;;;;;;;;;;;;;;;5034593;28;19909;-70
2023/09/03 09:40:15;;;;;;;;;;;;;;;;;;5034315;28;19909;-70
2023/09/03 09:42:41;;;;;;;;;;;;;;;;;;5034624;28;19908;-71
2023/09/03 09:45:07;;;;;;;;;;;;;;;;;;5034281;28;20470;-71
2023/09/03 09:47:32;;;;;;;;;;;;;;;;;;5034448;28;19937;-71
2023/09/03 09:49:58;;;;;;;;;;;;;;;;;;5034469;28;19955;-69
2023/09/03 09:52:24;;;;;;;;;;;;;;;;;;5034579;28;19984;-70
2023/09/03 09:54:50;;;;;;;;;;;;;;;;;;5034311;28;20000;-71
2023/09/03 09:57:16;;;;;;;;;;;;;;;;;;5033820;28;20401;-71
2023/09/03 09:59:42;;;;;;;;;;;;;;;;;;5034184;28;19994;-69
2023/09/03 10:02:08;;;;;;;;;;;;;;;;;;5034364;28;19992;-73
2023/09/03 10:04:34;;;;;;;;;;;;;;;;;;5034347;28;19944;-71
2023/09/03 10:07:00;;;;;;;;;;;;;;;;;;5034118;28;19959;-70
2023/09/03 10:09:26;;;;;;;;;;;;;;;;;;5034249;28;19908;-70
2023/09/03 10:11:52;;;;;;;;;;;;;;;;;;5033910;28;19948;-71
2023/09/03 10:14:18;;;;;;;;;;;;;;;;;;5033964;28;19967;-70
2023/09/03 10:16:44;;;;;;;;;;;;;;;;;;5033761;28;19912;-70
2023/09/03 10:19:10;;;;;;;;;;;;;;;;;;5033696;28;19905;-72
2023/09/03 10:21:36;;;;;;;;;;;;;;;;;;5034003;28;20278;-70
2023/09/03 10:24:03;;;;;;;;;;;;;;;;;;5033753;28;19911;-71
2023/09/03 10:26:29;;;;;;;;;;;;;;;;;;5033679;28;20279;-72
2023/09/03 10:28:55;;;;;;;;;;;;;;;;;;5034042;28;19916;-72
2023/09/03 10:31:21;;;;;;;;;;;;;;;;;;5033748;28;20003;-71
2023/09/03 10:33:47;;;;;;;;;;;;;;;;;;5033169;28;19996;-72
2023/09/03 10:36:13;;;;;;;;;;;;;;;;;;5033773;28;19905;-72
2023/09/03 10:38:40;;;;;;;;;;;;;;;;;;5033815;28;19908;-72
2023/09/03 10:41:06;;;;;;;;;;;;;;;;;;5033398;28;19905;-71
2023/09/03 10:43:32;;;;;;;;;;;;;;;;;;5033481;28;20274;-72
2023/09/03 10:45:58;;;;;;;;;;;;;;;;;;5033578;28;20270;-72
2023/09/03 10:48:24;;;;;;;;;;;;;;;;;;5033551;28;20401;-71
2023/09/03 10:50:50;;;;;;;;;;;;;;;;;;5033526;28;19948;-70
2023/09/03 10:53:16;;;;;;;;;;;;;;;;;;5033312;28;19938;-72
2023/09/03 10:55:42;;;;;;;;;;;;;;;;;;5033422;28;19916;-72
2023/09/03 10:58:08;;;;;;;;;;;;;;;;;;5032868;28;19960;-72
2023/09/03 11:00:34;;;;;;;;;;;;;;;;;;5033125;28;19905;-72
2023/09/03 11:03:00;;;;;;;;;;;;;;;;;;5033352;28;20412;-72
2023/09/03 11:05:28;;;;;;;;;;;;;;;;;;5032785;28;19952;-72
2023/09/03 11:07:54;;;;;;;;;;;;;;;;;;5033202;28;19905;-72
2023/09/03 11:10:20;;;;;;;;;;;;;;;;;;5033131;28;19931;-72
2023/09/03 11:12:46;;;;;;;;;;;;;;;;;;5033166;28;20036;-73
2023/09/03 11:15:12;;;;;;;;;;;;;;;;;;5032728;28;19956;-72
2023/09/03 11:17:37;;;;;;;;;;;;;;;;;;5032667;28;20038;-72
2023/09/03 11:20:03;;;;;;;;;;;;;;;;;;5032913;28;19940;-72
2023/09/03 11:22:36;;;;;;;;;;;;;;;;;;5032887;28;19905;-72
2023/09/03 11:25:02;;;;;;;;;;;;;;;;;;5032957;28;19905;-72
2023/09/03 11:27:28;;;;;;;;;;;;;;;;;;5032737;28;19913;-72
2023/09/03 11:29:54;;;;;;;;;;;;;;;;;;5032419;28;19905;-72
2023/09/03 11:32:20;;;;;;;;;;;;;;;;;;5032648;28;20006;-72
2023/09/03 11:34:46;;;;;;;;;;;;;;;;;;5032656;28;20486;-73
2023/09/03 11:37:12;;;;;;;;;;;;;;;;;;5032058;28;19948;-71
2023/09/03 11:39:38;;;;;;;;;;;;;;;;;;5032533;28;20282;-73
2023/09/03 11:42:04;;;;;;;;;;;;;;;;;;5014652;28;20331;-73
2023/09/03 11:44:30;;;;;;;;;;;;;;;;;;5032269;28;19937;-72
2023/09/03 11:46:57;;;;;;;;;;;;;;;;;;5032492;28;19905;-71
2023/09/03 11:49:22;;;;;;;;;;;;;;;;;;5032054;28;19905;-73
2023/09/03 11:51:48;;;;;;;;;;;;;;;;;;5032056;28;19905;-73
2023/09/03 11:54:14;;;;;;;;;;;;;;;;;;5032301;28;20032;-72
2023/09/03 11:56:40;;;;;;;;;;;;;;;;;;5032018;28;19944;-71
2023/09/03 11:59:06;;;;;;;;;;;;;;;;;;5032184;28;19917;-72
2023/09/03 12:01:32;;;;;;;;;;;;;;;;;;5032013;28;19959;-72
2023/09/03 12:03:58;;;;;;;;;;;;;;;;;;5032166;28;20015;-70
2023/09/03 12:06:24;;;;;;;;;;;;;;;;;;5032044;28;19909;-72
2023/09/03 12:08:50;;;;;;;;;;;;;;;;;;5031481;28;19905;-72
2023/09/03 12:11:16;;;;;;;;;;;;;;;;;;5031971;28;19905;-72
2023/09/03 12:13:44;;;;;;;;;;;;;;;;;;5032021;28;19905;-72
2023/09/03 12:16:10;;;;;;;;;;;;;;;;;;5031744;28;19905;-72
2023/09/03 12:18:36;;;;;;;;;;;;;;;;;;5031773;28;20359;-72
2023/09/03 12:21:02;;;;;;;;;;;;;;;;;;5031635;28;19959;-72
2023/09/03 12:23:28;;;;;;;;;;;;;;;;;;5014042;28;20359;-73
2023/09/03 12:25:54;;;;;;;;;;;;;;;;;;5031339;28;19960;-73
2023/09/03 12:28:22;;;;;;;;;;;;;;;;;;5013778;28;19948;-72
2023/09/03 12:30:48;;;;;;;;;;;;;;;;;;5031980;28;19912;-72
2023/09/03 12:33:14;;;;;;;;;;;;;;;;;;5031283;28;19905;-73
2023/09/03 12:35:40;;;;;;;;;;;;;;;;;;5031356;28;19920;-73
2023/09/03 12:38:06;;;;;;;;;;;;;;;;;;5031672;28;19905;-73
2023/09/03 12:40:32;;;;;;;;;;;;;;;;;;5031690;28;19905;-73
2023/09/03 12:42:58;;;;;;;;;;;;;;;;;;5031180;28;19947;-73
2023/09/03 12:45:24;;;;;;;;;;;;;;;;;;5031652;28;19913;-72
2023/09/03 12:47:49;;;;;;;;;;;;;;;;;;5032215;28;20351;-73
2023/09/03 12:50:15;;;;;;;;;;;;;;;;;;5030702;28;20311;-73
2023/09/03 12:52:42;;;;;;;;;;;;;;;;;;5031635;28;20370;-73
2023/09/03 12:55:08;;;;;;;;;;;;;;;;;;5031644;28;19913;-73
2023/09/03 12:57:35;;;;;;;;;;;;;;;;;;5031581;28;19940;-73
2023/09/03 13:00:04;;;;;;;;;;;;;;;;;;5013876;28;20582;-73
2023/09/03 13:02:30;;;;;;;;;;;;;;;;;;5033362;28;19905;-72
2023/09/03 13:04:56;;;;;;;;;;;;;;;;;;5032368;28;19911;-72
2023/09/03 13:07:22;;;;;;;;;;;;;;;;;;5031833;28;19912;-73
2023/09/03 13:09:48;;;;;;;;;;;;;;;;;;5031768;28;20003;-72
2023/09/03 13:12:14;;;;;;;;;;;;;;;;;;5031937;28;20393;-72
2023/09/03 13:14:40;;;;;;;;;;;;;;;;;;5031728;28;20453;-72
2023/09/03 13:17:06;;;;;;;;;;;;;;;;;;5015395;28;19905;-72
2023/09/03 13:19:32;;;;;;;;;;;;;;;;;;5036607;28;19909;-71
2023/09/03 13:21:58;;;;;;;;;;;;;;;;;;5037006;28;19919;-73
2023/09/03 13:24:24;;;;;;;;;;;;;;;;;;5036351;28;19905;-73
2023/09/03 13:26:51;;;;;;;;;;;;;;;;;;5037459;28;20414;-72
2023/09/03 13:29:16;;;;;;;;;;;;;;;;;;5038807;28;19905;-71
2023/09/03 13:31:42;;;;;;;;;;;;;;;;;;5038137;28;20283;-72
2023/09/03 13:34:08;;;;;;;;;;;;;;;;;;5038241;28;19913;-72
2023/09/03 13:36:34;;;;;;;;;;;;;;;;;;5037216;28;19943;-71
2023/09/03 13:39:01;;;;;;;;;;;;;;;;;;5032715;28;19947;-71
2023/09/03 13:41:27;;;;;;;;;;;;;;;;;;5031327;28;19905;-71
2023/09/03 13:43:53;;;;;;;;;;;;;;;;;;5014519;28;20362;-71
2023/09/03 13:46:21;;;;;;;;;;;;;;;;;;5032491;28;19960;-72
2023/09/03 13:48:48;;;;;;;;;;;;;;;;;;5033052;28;19905;-72
2023/09/03 13:51:15;;;;;;;;;;;;;;;;;;5032447;28;20023;-72
2023/09/03 13:53:41;;;;;;;;;;;;;;;;;;5032212;28;19912;-73
2023/09/03 13:56:07;;;;;;;;;;;;;;;;;;5031530;28;19911;-73
2023/09/03 13:58:33;;;;;;;;;;;;;;;;;;5031656;28;19917;-72
2023/09/03 14:00:59;;;;;;;;;;;;;;;;;;5032569;28;19949;-72
2023/09/03 14:03:25;;;;;;;;;;;;;;;;;;5035094;28;19909;-72
2023/09/03 14:05:51;;;;;;;;;;;;;;;;;;5034998;28;19962;-72
2023/09/03 14:08:16;;;;;;;;;;;;;;;;;;5034895;28;19905;-72
2023/09/03 14:10:42;;;;;;;;;;;;;;;;;;5035032;28;20000;-71
2023/09/03 14:13:08;;;;;;;;;;;;;;;;;;5034123;28;19944;-72
2023/09/03 14:15:35;;;;;;;;;;;;;;;;;;5034764;28;19968;-73
2023/09/03 14:18:01;;;;;;;;;;;;;;;;;;5034900;28;19916;-72
2023/09/03 14:20:27;;;;;;;;;;;;;;;;;;5034522;28;19905;-72
2023/09/03 14:22:53;;;;;;;;;;;;;;;;;;5034093;28;19939;-72
2023/09/03 14:25:19;;;;;;;;;;;;;;;;;;5034497;28;19905;-71
2023/09/03 14:27:45;;;;;;;;;;;;;;;;;;5035106;28;20034;-73
2023/09/03 14:30:11;;;;;;;;;;;;;;;;;;5034873;28;20371;-73
2023/09/03 14:32:37;;;;;;;;;;;;;;;;;;5034765;28;20298;-75
2023/09/03 14:35:03;;;;;;;;;;;;;;;;;;5034836;28;19913;-73
2023/09/03 14:37:29;;;;;;;;;;;;;;;;;;5034922;28;19912;-72
2023/09/03 14:39:55;;;;;;;;;;;;;;;;;;5034504;28;20350;-73
2023/09/03 14:42:21;;;;;;;;;;;;;;;;;;5033992;28;19931;-72
2023/09/03 14:44:47;;;;;;;;;;;;;;;;;;5035061;28;19967;-74
2023/09/03 14:47:14;;;;;;;;;;;;;;;;;;5035109;28;19901;-73
2023/09/03 14:49:40;;;;;;;;;;;;;;;;;;5036177;28;20000;-73
2023/09/03 14:52:06;;;;;;;;;;;;;;;;;;5034539;28;19975;-74
2023/09/03 14:54:32;;;;;;;;;;;;;;;;;;5015952;28;19913;-73
2023/09/03 14:56:58;;;;;;;;;;;;;;;;;;5033900;28;20287;-74
2023/09/03 14:59:24;;;;;;;;;;;;;;;;;;5017972;28;19905;-73
2023/09/03 15:01:51;;;;;;;;;;;;;;;;;;5036131;28;19913;-75
2023/09/03 15:04:17;;;;;;;;;;;;;;;;;;5035509;28;19901;-74
2023/09/03 15:06:43;;;;;;;;;;;;;;;;;;5034534;28;19916;-74
2023/09/03 15:09:09;;;;;;;;;;;;;;;;;;5034642;28;19912;-73
2023/09/03 15:11:35;;;;;;;;;;;;;;;;;;5034472;28;19988;-73
2023/09/03 15:14:02;;;;;;;;;;;;;;;;;;5015455;28;19919;-73
2023/09/03 15:16:33;;;;;;;;;;;;;;;;;;5033830;28;19928;-73
2023/09/03 15:18:59;;;;;;;;;;;;;;;;;;5034110;28;20516;-73
2023/09/03 15:21:25;;;;;;;;;;;;;;;;;;5033298;28;19956;-73
2023/09/03 15:23:51;;;;;;;;;;;;;;;;;;5032550;28;19905;-73
2023/09/03 15:26:17;;;;;;;;;;;;;;;;;;5032074;28;20409;-74
2023/09/03 15:28:43;;;;;;;;;;;;;;;;;;5030196;28;19962;-73
2023/09/03 15:31:09;;;;;;;;;;;;;;;;;;5030531;28;19959;-73
2023/09/03 15:33:35;;;;;;;;;;;;;;;;;;5031761;28;19916;-72
2023/09/03 15:36:01;;;;;;;;;;;;;;;;;;5031092;28;19968;-73
2023/09/03 15:38:27;;;;;;;;;;;;;;;;;;5031435;28;19916;-72
2023/09/03 15:40:53;;;;;;;;;;;;;;;;;;5031410;28;19952;-73
2023/09/03 15:43:21;;;;;;;;;;;;;;;;;;5030846;28;19964;-73
2023/09/03 15:45:47;;;;;;;;;;;;;;;;;;5030595;28;20354;-74
2023/09/03 15:48:13;;;;;;;;;;;;;;;;;;5013204;28;19905;-73
2023/09/03 15:50:38;;;;;;;;;;;;;;;;;;5030827;28;19941;-73
2023/09/03 15:53:04;;;;;;;;;;;;;;;;;;5030925;28;19951;-74
2023/09/03 15:55:31;;;;;;;;;;;;;;;;;;5030311;28;19960;-73
2023/09/03 15:57:57;;;;;;;;;;;;;;;;;;5030526;28;20004;-73
2023/09/03 16:00:23;;;;;;;;;;;;;;;;;;5030692;28;19912;-72
2023/09/03 16:02:49;;;;;;;;;;;;;;;;;;5030576;28;19995;-73
2023/09/03 16:05:14;;;;;;;;;;;;;;;;;;5031032;28;19948;-72
2023/09/03 16:07:40;;;;;;;;;;;;;;;;;;5030253;28;19940;-73
2023/09/03 16:10:06;;;;;;;;;;;;;;;;;;5030582;28;19948;-74
2023/09/03 16:12:32;;;;;;;;;;;;;;;;;;5028966;28;19955;-73
2023/09/03 16:15:00;;;;;;;;;;;;;;;;;;5030684;28;19913;-72
2023/09/03 16:17:26;;;;;;;;;;;;;;;;;;5030192;28;20359;-73
2023/09/03 16:19:52;;;;;;;;;;;;;;;;;;5012532;28;19984;-72
2023/09/03 16:22:18;;;;;;;;;;;;;;;;;;5029922;28;20389;-72
2023/09/03 16:24:44;;;;;;;;;;;;;;;;;;5030119;28;19972;-73
2023/09/03 16:27:10;;;;;;;;;;;;;;;;;;5012872;28;20276;-75
2023/09/03 16:29:36;;;;;;;;;;;;;;;;;;5030638;28;19959;-72
2023/09/03 16:32:02;;;;;;;;;;;;;;;;;;5029944;28;19952;-73
2023/09/03 16:34:28;;;;;;;;;;;;;;;;;;5030407;28;20421;-72
2023/09/03 16:36:54;;;;;;;;;;;;;;;;;;5030710;28;20016;-72